Time;durP1;ratioP1;P1;durP2;ratioP2;P2;SDS_P1;SDS_P2;PMS_P1;PMS_P2;Temp;Humidity;BMP_temperature;BMP_pressure;BME280_temperature;BME280_humidity;BME280_pressure;Samples;Min_cycle;Max_cycle;Signal;HPM_P1;HPM_P2
2022/10/19 00:01:42;;;;;;;63.55;50.90;;;23.00;62.80;;;;;;4794618;58;21032;-34
2022/10/19 00:06:43;;;;;;;60.03;49.53;;;23.00;62.90;;;;;;4832321;54;21004;-36
2022/10/19 00:11:47;;;;;;;61.10;48.60;;;23.00;62.90;;;;;;4822380;54;21525;-31
2022/10/19 00:16:52;;;;;;;62.45;48.85;;;23.00;63.10;;;;;;4824727;54;21000;-28
2022/10/19 00:21:53;;;;;;;63.10;50.45;;;23.00;63.20;;;;;;4818172;54;21151;-32
2022/10/19 00:26:54;;;;;;;63.55;50.72;;;23.00;63.30;;;;;;4806658;54;21051;-34
2022/10/19 00:31:55;;;;;;;60.85;49.28;;;23.00;63.40;;;;;;4825769;54;21075;-31
2022/10/19 00:36:55;;;;;;;62.67;48.95;;;23.00;63.50;;;;;;4821296;54;21012;-34
2022/10/19 00:41:56;;;;;;;60.63;48.20;;;23.00;63.70;;;;;;4823330;54;21056;-29
2022/10/19 00:47:00;;;;;;;60.58;49.17;;;23.00;63.90;;;;;;4839951;54;21068;-28
2022/10/19 00:52:05;;;;;;;61.47;48.22;;;23.00;64.10;;;;;;4818453;54;21075;-27
2022/10/19 00:57:07;;;;;;;60.33;47.92;;;23.00;64.40;;;;;;4813779;54;21020;-27
2022/10/19 01:02:08;;;;;;;58.95;48.15;;;23.00;64.80;;;;;;4831439;54;21095;-36
2022/10/19 01:07:09;;;;;;;58.33;47.50;;;23.00;65.30;;;;;;4795444;58;21095;-37
2022/10/19 01:12:48;;;;;;;60.50;48.17;;;23.00;66.70;;;;;;4827266;54;21581;-30
2022/10/19 01:18:11;;;;;;;56.50;46.05;;;23.00;60.60;;;;;;4842718;54;21569;-29
2022/10/19 01:23:40;;;;;;;55.22;44.10;;;22.90;55.50;;;;;;4794638;58;21585;-34
2022/10/19 01:30:03;;;;;;;57.03;45.38;;;22.90;55.60;;;;;;4951239;54;21048;-30
2022/10/19 01:35:49;;;;;;;52.45;44.58;;;22.90;55.50;;;;;;4826883;54;21360;-26
2022/10/19 01:44:08;;;;;;;53.17;42.22;;;22.90;55.50;;;;;;4816589;54;21047;-33
2022/10/19 01:49:59;;;;;;;54.08;43.90;;;22.90;55.60;;;;;;4796062;54;21132;-33
2022/10/19 01:55:03;;;;;;;56.22;44.70;;;22.90;55.60;;;;;;4800500;54;21000;-27
2022/10/19 02:00:07;;;;;;;53.67;42.97;;;22.90;55.60;;;;;;4813660;54;21016;-31
2022/10/19 02:05:11;;;;;;;52.22;42.85;;;22.90;55.60;;;;;;4800810;54;21052;-29
2022/10/19 02:10:12;;;;;;;54.05;44.97;;;22.90;55.60;;;;;;4819584;54;21048;-31
2022/10/19 02:15:16;;;;;;;50.95;41.65;;;22.90;55.60;;;;;;4811242;54;21007;-31
2022/10/19 02:20:18;;;;;;;49.33;41.40;;;22.90;55.60;;;;;;4844787;54;21016;-34
2022/10/19 02:25:20;;;;;;;52.00;41.83;;;22.90;55.60;;;;;;4805232;54;21337;-35
2022/10/19 02:30:21;;;;;;;49.92;41.22;;;23.00;55.60;;;;;;4795477;55;21131;-30
2022/10/19 02:35:22;;;;;;;48.00;39.60;;;22.90;55.60;;;;;;4812419;54;21142;-28
2022/10/19 02:40:24;;;;;;;51.40;41.28;;;22.90;55.60;;;;;;4795106;58;22349;-28
2022/10/19 02:45:51;;;;;;;49.38;40.42;;;22.90;55.60;;;;;;4838455;54;21092;-34
2022/10/19 02:50:51;;;;;;;49.03;41.05;;;22.80;55.40;;;;;;4843377;54;21167;-30
2022/10/19 02:55:52;;;;;;;49.58;39.90;;;22.80;55.60;;;;;;4796067;54;21016;-28
2022/10/19 03:00:56;;;;;;;49.50;39.80;;;22.80;55.60;;;;;;4820965;54;21027;-26
2022/10/19 03:05:57;;;;;;;47.53;37.83;;;22.80;55.60;;;;;;4817069;54;21060;-31
2022/10/19 03:10:58;;;;;;;49.25;39.53;;;22.80;55.60;;;;;;4845022;54;21016;-29
2022/10/19 03:16:09;;;;;;;46.78;38.95;;;22.80;55.60;;;;;;4818842;54;21003;-29
2022/10/19 03:21:12;;;;;;;46.85;38.80;;;22.80;55.60;;;;;;4794449;58;21091;-30
2022/10/19 03:26:14;;;;;;;48.45;39.15;;;22.80;55.60;;;;;;4825667;54;21126;-27
2022/10/19 03:31:18;;;;;;;44.35;36.40;;;22.80;55.60;;;;;;4795467;58;21051;-27
2022/10/19 03:36:28;;;;;;;46.40;38.13;;;22.80;55.70;;;;;;4801535;54;21083;-27
2022/10/19 03:41:31;;;;;;;46.25;37.88;;;22.80;55.60;;;;;;4803799;54;21546;-27
2022/10/19 03:46:32;;;;;;;43.97;36.33;;;22.90;55.80;;;;;;4800418;54;20999;-34
2022/10/19 03:51:34;;;;;;;44.53;37.17;;;22.90;55.70;;;;;;4798398;54;21020;-30
2022/10/19 03:56:35;;;;;;;43.55;35.95;;;22.80;55.70;;;;;;4812349;54;21071;-27
2022/10/19 04:01:42;;;;;;;44.95;36.72;;;22.80;55.60;;;;;;4795325;58;21027;-27
2022/10/19 04:06:44;;;;;;;46.47;37.40;;;22.80;55.70;;;;;;4795702;58;21055;-32
2022/10/19 04:11:48;;;;;;;42.78;37.05;;;22.80;55.70;;;;;;4815218;54;21068;-25
2022/10/19 04:16:49;;;;;;;40.28;34.80;;;22.80;55.80;;;;;;4802127;54;21047;-34
2022/10/19 04:21:50;;;;;;;43.75;37.20;;;22.80;55.70;;;;;;4816381;54;21553;-28
2022/10/19 04:26:53;;;;;;;43.50;35.25;;;22.80;55.70;;;;;;4795455;58;20999;-30
2022/10/19 04:31:54;;;;;;;44.58;36.05;;;22.80;55.70;;;;;;4795667;58;21044;-34
2022/10/19 04:36:58;;;;;;;43.20;35.85;;;22.80;55.70;;;;;;4805789;54;21007;-28
2022/10/19 04:41:58;;;;;;;43.13;35.15;;;22.80;55.70;;;;;;4842594;54;21485;-29
2022/10/19 04:46:59;;;;;;;44.25;36.13;;;22.80;55.70;;;;;;4804279;54;21008;-29
2022/10/19 04:52:00;;;;;;;39.65;34.28;;;22.80;55.60;;;;;;4813182;54;21016;-27
2022/10/19 04:57:01;;;;;;;40.78;34.78;;;22.80;55.60;;;;;;4805646;54;21016;-27
2022/10/19 05:02:02;;;;;;;42.97;34.85;;;22.80;55.60;;;;;;4805685;54;21556;-32
2022/10/19 05:07:03;;;;;;;41.17;33.88;;;22.80;55.50;;;;;;4810104;54;21059;-28
2022/10/19 05:12:04;;;;;;;41.75;34.17;;;22.80;55.50;;;;;;4799225;54;21488;-30
2022/10/19 05:17:04;;;;;;;41.92;33.28;;;22.80;55.60;;;;;;4806897;54;21454;-30
2022/10/19 05:22:05;;;;;;;39.53;33.60;;;22.80;55.50;;;;;;4800739;54;21008;-26
2022/10/19 05:27:06;;;;;;;41.22;34.60;;;22.70;55.60;;;;;;4858088;54;21075;-29
2022/10/19 05:32:07;;;;;;;39.25;32.90;;;22.80;55.50;;;;;;4807242;54;21036;-30
2022/10/19 05:37:08;;;;;;;39.00;32.40;;;22.80;55.60;;;;;;4819744;54;21493;-30
2022/10/19 05:42:08;;;;;;;40.97;34.53;;;22.80;55.60;;;;;;4820265;54;21083;-28
2022/10/19 05:47:09;;;;;;;38.95;32.60;;;22.70;55.50;;;;;;4809777;54;21853;-34
2022/10/19 05:52:10;;;;;;;42.15;34.70;;;22.70;55.50;;;;;;4795170;58;20996;-28
2022/10/19 05:57:11;;;;;;;40.53;34.13;;;22.70;55.50;;;;;;4794777;58;21000;-30
2022/10/19 06:02:13;;;;;;;40.63;33.97;;;22.80;55.50;;;;;;4796206;54;21027;-31
2022/10/19 06:07:14;;;;;;;41.80;34.53;;;22.70;55.50;;;;;;4803565;54;20992;-33
2022/10/19 06:12:17;;;;;;;42.20;34.15;;;22.70;55.50;;;;;;4795749;54;21003;-35
2022/10/19 06:17:17;;;;;;;39.15;33.03;;;22.70;55.50;;;;;;4795340;58;20987;-31
2022/10/19 06:22:18;;;;;;;39.33;33.28;;;22.80;55.50;;;;;;4832629;54;21091;-27
2022/10/19 06:27:19;;;;;;;41.17;33.25;;;22.80;55.50;;;;;;4795198;58;21059;-28
2022/10/19 06:32:20;;;;;;;39.45;32.88;;;22.80;55.50;;;;;;4808041;54;21589;-28
2022/10/19 06:37:21;;;;;;;38.10;32.40;;;22.70;55.50;;;;;;4836178;54;21004;-30
2022/10/19 06:42:21;;;;;;;42.53;34.97;;;22.70;55.50;;;;;;4819040;54;21123;-28
2022/10/19 06:47:26;;;;;;;39.05;33.08;;;22.80;55.50;;;;;;4795904;58;20996;-28
2022/10/19 06:52:27;;;;;;;39.70;33.22;;;22.80;55.50;;;;;;4794012;58;20991;-30
2022/10/19 06:57:28;;;;;;;41.13;34.15;;;22.80;55.60;;;;;;4813266;54;20996;-30
2022/10/19 07:02:29;;;;;;;47.08;38.42;;;22.70;55.50;;;;;;4794718;58;21589;-29
2022/10/19 07:07:30;;;;;;;45.72;36.88;;;22.80;55.30;;;;;;4798509;54;21011;-34
2022/10/19 07:12:30;;;;;;;47.53;37.05;;;22.80;55.00;;;;;;4802107;54;21003;-26
2022/10/19 07:17:31;;;;;;;47.22;37.70;;;22.90;55.20;;;;;;4806043;54;22160;-29
2022/10/19 07:22:32;;;;;;;45.25;37.45;;;22.90;55.00;;;;;;4796666;54;21016;-32
2022/10/19 07:27:35;;;;;;;49.13;38.90;;;22.90;55.90;;;;;;4794011;58;20992;-31
2022/10/19 07:32:36;;;;;;;51.83;38.90;;;22.90;55.10;;;;;;4793987;55;21533;-28
2022/10/19 07:37:37;;;;;;;49.63;39.83;;;23.00;54.90;;;;;;4804388;54;20992;-33
2022/10/19 07:42:38;;;;;;;54.28;41.20;;;23.00;54.70;;;;;;4804319;54;21016;-34
2022/10/19 07:47:38;;;;;;;53.38;41.67;;;23.00;54.60;;;;;;4797403;54;21215;-31
2022/10/19 07:52:39;;;;;;;56.08;44.35;;;23.00;54.60;;;;;;4821669;54;21012;-30
2022/10/19 07:57:40;;;;;;;56.67;44.97;;;23.00;54.40;;;;;;4794908;58;21047;-36
2022/10/19 08:02:42;;;;;;;60.22;47.95;;;23.10;54.30;;;;;;4818329;54;21514;-31
2022/10/19 08:07:42;;;;;;;63.05;50.50;;;23.00;54.30;;;;;;4802746;54;21113;-28
2022/10/19 08:12:43;;;;;;;67.78;53.10;;;23.10;54.30;;;;;;4815207;54;21008;-32
2022/10/19 08:17:44;;;;;;;64.68;51.20;;;23.10;54.30;;;;;;4832596;54;21481;-30
2022/10/19 08:22:45;;;;;;;70.80;55.22;;;23.10;54.20;;;;;;4824784;54;21036;-27
2022/10/19 08:27:46;;;;;;;73.35;56.80;;;23.10;54.00;;;;;;4834236;54;22298;-29
2022/10/19 08:32:47;;;;;;;74.07;59.42;;;23.10;54.30;;;;;;4793739;58;21056;-30
2022/10/19 08:37:48;;;;;;;80.95;62.22;;;23.10;54.20;;;;;;4799570;54;21000;-33
2022/10/19 08:43:11;;;;;;;80.12;62.90;;;23.00;54.00;;;;;;4808934;54;21066;-28
2022/10/19 08:48:31;;;;;;;81.55;64.47;;;23.10;54.00;;;;;;4794805;58;20999;-27
2022/10/19 08:53:53;;;;;;;87.03;67.30;;;23.10;54.00;;;;;;4811354;54;21552;-40
2022/10/19 09:02:18;;;;;;;90.50;68.28;;;23.10;54.10;;;;;;4813025;54;21055;-30
2022/10/19 09:37:39;;;;;;;96.00;74.00;;;23.20;54.50;;;;;;4758902;54;22122;-28
2022/10/19 09:42:39;;;;;;;94.65;73.32;;;23.20;54.70;;;;;;4761713;54;21038;-34
2022/10/19 09:47:44;;;;;;;99.43;74.35;;;23.20;54.70;;;;;;4758225;55;21551;-35
2022/10/19 09:52:50;;;;;;;95.10;69.25;;;23.30;55.10;;;;;;4757007;55;21085;-30
2022/10/19 09:58:02;;;;;;;104.07;71.53;;;23.30;55.30;;;;;;4756335;55;21629;-31
2022/10/19 10:03:04;;;;;;;90.35;70.90;;;23.30;55.70;;;;;;4758621;55;21433;-37
2022/10/19 10:08:45;;;;;;;94.32;70.55;;;23.40;55.90;;;;;;4755041;55;21618;-28
2022/10/19 10:13:52;;;;;;;97.22;71.70;;;23.40;56.00;;;;;;4742686;55;21129;-32
2022/10/19 10:19:02;;;;;;;93.78;68.25;;;23.40;56.10;;;;;;4761215;55;21109;-32
2022/10/19 10:24:15;;;;;;;89.82;67.57;;;23.50;56.40;;;;;;4744728;55;21054;-30
2022/10/19 10:29:28;;;;;;;95.80;67.78;;;23.50;56.50;;;;;;4742393;58;21535;-28
2022/10/19 10:34:43;;;;;;;92.57;66.50;;;23.50;57.00;;;;;;4739912;58;21487;-33
2022/10/19 10:39:44;;;;;;;89.75;68.43;;;23.50;57.30;;;;;;4755895;55;21121;-33
2022/10/19 10:44:52;;;;;;;90.35;67.75;;;23.50;57.00;;;;;;4738931;59;21133;-35
2022/10/19 10:50:00;;;;;;;94.03;68.40;;;23.50;57.10;;;;;;4738554;59;21069;-32
2022/10/19 10:55:18;;;;;;;100.78;67.80;;;23.60;57.20;;;;;;4763226;55;21006;-36
2022/10/19 11:00:22;;;;;;;90.57;68.68;;;23.60;57.10;;;;;;4748601;55;20997;-32
2022/10/19 11:05:40;;;;;;;100.40;73.75;;;23.60;57.80;;;;;;4752977;55;21559;-30
2022/10/19 11:11:03;;;;;;;101.15;73.12;;;23.70;57.80;;;;;;4743209;55;20986;-32
2022/10/19 11:16:16;;;;;;;93.03;70.40;;;23.60;57.80;;;;;;4766000;55;21097;-27
2022/10/19 11:21:36;;;;;;;92.45;70.10;;;23.60;57.70;;;;;;4738324;59;20998;-28
2022/10/19 11:27:00;;;;;;;99.68;72.90;;;23.50;58.20;;;;;;4738245;59;21555;-27
2022/10/19 11:32:01;;;;;;;92.32;68.75;;;23.50;57.60;;;;;;4750878;55;21013;-33
2022/10/19 11:37:23;;;;;;;91.68;70.28;;;23.50;57.50;;;;;;4741228;55;21104;-27
2022/10/19 11:42:55;;;;;;;94.10;71.00;;;23.50;57.30;;;;;;4738235;59;21069;-36
2022/10/19 11:49:34;;;;;;;94.47;71.57;;;23.50;57.30;;;;;;4752137;55;21021;-33
2022/10/19 11:55:45;;;;;;;93.50;71.62;;;23.40;57.20;;;;;;4740165;55;21057;-36
2022/10/19 12:01:02;;;;;;;103.50;74.75;;;23.40;57.10;;;;;;4755268;55;21045;-31
2022/10/19 12:07:13;;;;;;;90.70;67.90;;;23.40;56.60;;;;;;4748532;55;21109;-32
2022/10/19 12:12:43;;;;;;;95.12;66.30;;;23.30;56.30;;;;;;4751253;55;21021;-30
2022/10/19 12:17:47;;;;;;;88.78;62.58;;;23.30;56.50;;;;;;4739474;55;21085;-34
2022/10/19 12:22:49;;;;;;;81.12;59.75;;;23.20;56.60;;;;;;4738716;59;21468;-30
2022/10/19 12:27:50;;;;;;;80.93;59.17;;;23.30;57.90;;;;;;4750358;55;21017;-35
2022/10/19 12:34:45;;;;;;;86.12;60.75;;;23.20;56.90;;;;;;4800951;55;21519;-27
2022/10/19 12:42:28;;;;;;;96.03;69.80;;;23.20;57.20;;;;;;4758647;55;21001;-35
2022/10/19 12:47:29;;;;;;;101.32;72.62;;;23.20;57.10;;;;;;4775040;55;21061;-34
2022/10/19 12:52:51;;;;;;;104.25;76.32;;;23.20;57.40;;;;;;4756586;55;21612;-29
2022/10/19 12:57:58;;;;;;;102.40;76.68;;;23.20;57.30;;;;;;4739184;55;20982;-33
2022/10/19 13:03:34;;;;;;;108.80;75.60;;;23.20;57.30;;;;;;4738345;55;21058;-33
2022/10/19 13:09:05;;;;;;;86.87;66.50;;;23.20;57.30;;;;;;4762782;55;21560;-31
2022/10/19 13:14:44;;;;;;;85.97;63.08;;;23.20;57.30;;;;;;4760261;55;21049;-35
2022/10/19 13:19:45;;;;;;;90.00;66.53;;;23.20;57.60;;;;;;4738799;59;20990;-31
2022/10/19 13:25:22;;;;;;;89.68;68.47;;;23.20;57.60;;;;;;4761514;55;20991;-28
2022/10/19 13:31:28;;;;;;;93.87;66.72;;;23.20;57.50;;;;;;4763045;55;21552;-31
2022/10/19 13:36:30;;;;;;;89.37;67.28;;;23.20;57.60;;;;;;4752721;55;21002;-29
2022/10/19 13:42:21;;;;;;;84.55;63.97;;;23.20;57.50;;;;;;4802488;55;21610;-29
2022/10/19 13:47:38;;;;;;;81.45;59.85;;;23.20;57.70;;;;;;4761666;55;20963;-29
2022/10/19 13:56:08;;;;;;;81.43;63.08;;;23.20;57.60;;;;;;4746247;55;21089;-28
2022/10/19 14:02:54;;;;;;;79.53;60.35;;;23.20;57.80;;;;;;4744145;55;21073;-30
2022/10/19 14:09:48;;;;;;;78.28;61.50;;;23.20;57.60;;;;;;4769188;55;21551;-31
2022/10/19 14:14:52;;;;;;;80.62;61.72;;;23.20;57.80;;;;;;4760648;55;21038;-29
2022/10/19 14:19:56;;;;;;;85.85;60.72;;;23.20;57.70;;;;;;4762498;55;21476;-31
2022/10/19 14:28:30;;;;;;;91.37;67.97;;;23.30;58.30;;;;;;4750532;55;21575;-30
2022/10/19 14:33:37;;;;;;;98.80;68.35;;;23.30;57.90;;;;;;4739092;55;21117;-32
2022/10/19 14:38:42;;;;;;;94.30;68.45;;;23.30;57.90;;;;;;4746119;55;21005;-39
2022/10/19 14:43:43;;;;;;;96.32;69.85;;;23.30;57.90;;;;;;4790729;55;21073;-32
2022/10/19 14:48:49;;;;;;;84.18;61.88;;;23.30;57.80;;;;;;4815717;55;21042;-30
2022/10/19 14:54:00;;;;;;;94.47;65.70;;;23.30;57.90;;;;;;4756602;55;21017;-33
2022/10/19 14:59:52;;;;;;;83.07;58.40;;;23.30;57.70;;;;;;4814964;55;21002;-36
2022/10/19 15:04:56;;;;;;;269.83;233.18;;;23.30;58.10;;;;;;4776865;55;21081;-31
2022/10/19 15:09:59;;;;;;;140.62;113.37;;;23.30;57.90;;;;;;4738709;59;21006;-29
2022/10/19 15:15:05;;;;;;;121.68;98.40;;;23.30;57.70;;;;;;4751595;55;21060;-29
2022/10/19 15:20:26;;;;;;;115.82;95.60;;;23.20;57.50;;;;;;4738786;59;21002;-30
2022/10/19 15:25:32;;;;;;;166.65;145.87;;;23.20;57.50;;;;;;4780857;55;20998;-32
2022/10/19 15:30:33;;;;;;;129.35;113.10;;;23.20;57.70;;;;;;4737240;56;21204;-34
2022/10/19 15:35:37;;;;;;;138.60;114.25;;;23.30;58.80;;;;;;4761373;55;22327;-29
2022/10/19 15:40:40;;;;;;;124.60;106.55;;;23.30;58.20;;;;;;4743526;55;21101;-30
2022/10/19 15:45:41;;;;;;;114.53;100.70;;;23.20;57.70;;;;;;4750580;55;21066;-28
2022/10/19 15:50:47;;;;;;;114.50;98.90;;;23.20;57.90;;;;;;4748371;55;21107;-30
2022/10/19 15:55:48;;;;;;;110.50;97.22;;;23.20;58.00;;;;;;4758105;55;21563;-28
2022/10/19 16:00:49;;;;;;;106.32;94.57;;;23.20;58.00;;;;;;4737718;59;21593;-29
2022/10/19 16:05:49;;;;;;;105.22;92.75;;;23.20;58.70;;;;;;4753226;55;21065;-27
2022/10/19 16:10:50;;;;;;;101.78;90.87;;;23.20;58.20;;;;;;4743293;55;21049;-31
2022/10/19 16:15:57;;;;;;;99.62;88.22;;;23.20;58.30;;;;;;4766820;55;21010;-34
2022/10/19 16:20:58;;;;;;;99.03;88.20;;;23.20;58.30;;;;;;4749063;55;20982;-30
2022/10/19 16:26:00;;;;;;;98.97;88.20;;;23.20;58.40;;;;;;4749980;55;21185;-28
2022/10/19 16:31:01;;;;;;;98.30;87.03;;;23.20;58.40;;;;;;4758053;55;21038;-31
2022/10/19 16:36:06;;;;;;;96.93;86.35;;;23.20;58.40;;;;;;4737549;59;21060;-30
2022/10/19 16:41:09;;;;;;;97.18;86.50;;;23.20;58.40;;;;;;4750193;55;21006;-27
2022/10/19 16:46:10;;;;;;;90.70;80.65;;;23.10;58.40;;;;;;4771797;55;21002;-28
2022/10/19 16:51:36;;;;;;;91.18;81.37;;;23.10;58.40;;;;;;4749140;55;21006;-29
2022/10/19 16:56:43;;;;;;;88.60;78.97;;;23.20;58.50;;;;;;4770836;55;21089;-26
2022/10/19 17:01:45;;;;;;;91.22;81.25;;;23.10;58.50;;;;;;4750839;55;21050;-30
2022/10/19 17:06:45;;;;;;;89.97;79.53;;;23.10;58.60;;;;;;4749389;55;20994;-27
2022/10/19 17:11:47;;;;;;;85.70;76.22;;;23.10;58.60;;;;;;4738029;59;20994;-27
2022/10/19 17:16:48;;;;;;;86.15;76.70;;;23.20;58.60;;;;;;4749005;55;21463;-28
2022/10/19 17:21:49;;;;;;;86.12;76.62;;;23.10;58.70;;;;;;4780569;55;20993;-29
2022/10/19 17:26:51;;;;;;;90.05;77.30;;;23.10;58.60;;;;;;4744266;55;20986;-28
2022/10/19 17:31:52;;;;;;;86.35;76.75;;;23.10;58.70;;;;;;4774564;55;21030;-29
2022/10/19 17:36:53;;;;;;;81.75;71.30;;;23.10;58.70;;;;;;4763361;55;21070;-28
2022/10/19 17:41:54;;;;;;;83.50;73.25;;;23.00;58.70;;;;;;4738080;59;21669;-30
2022/10/19 17:46:55;;;;;;;84.45;73.20;;;23.10;58.70;;;;;;4748527;55;21440;-33
2022/10/19 17:51:56;;;;;;;82.30;73.25;;;23.10;59.30;;;;;;4762322;55;21049;-28
2022/10/19 17:56:57;;;;;;;84.60;73.20;;;23.10;58.70;;;;;;4750217;55;21030;-28
2022/10/19 18:01:58;;;;;;;82.10;73.07;;;23.10;58.70;;;;;;4740902;55;21041;-26
2022/10/19 18:06:59;;;;;;;81.85;71.47;;;23.10;58.80;;;;;;4801804;55;21089;-28
2022/10/19 18:11:59;;;;;;;80.22;71.53;;;23.10;58.70;;;;;;4739556;55;21002;-28
2022/10/19 18:17:00;;;;;;;79.55;70.82;;;23.00;58.70;;;;;;4738409;59;21070;-30
2022/10/19 18:22:01;;;;;;;78.72;70.00;;;23.00;59.30;;;;;;4748099;55;21033;-27
2022/10/19 18:27:02;;;;;;;81.18;71.30;;;23.10;58.80;;;;;;4761938;55;20998;-29
2022/10/19 18:32:03;;;;;;;81.43;71.93;;;23.00;58.80;;;;;;4737620;59;21038;-28
2022/10/19 18:37:06;;;;;;;82.32;70.47;;;23.00;58.70;;;;;;4744597;55;21496;-30
2022/10/19 18:42:07;;;;;;;82.35;71.07;;;23.00;58.80;;;;;;4752284;55;21027;-27
2022/10/19 18:47:07;;;;;;;82.70;70.95;;;23.10;58.80;;;;;;4754001;55;21006;-29
2022/10/19 18:52:08;;;;;;;80.95;71.15;;;23.00;58.80;;;;;;4751403;55;21025;-30
2022/10/19 18:57:09;;;;;;;81.28;71.18;;;23.00;58.90;;;;;;4751433;55;21026;-28
2022/10/19 19:02:10;;;;;;;75.43;64.80;;;23.00;58.80;;;;;;4842194;55;21583;-27
2022/10/19 19:07:11;;;;;;;77.80;68.05;;;23.00;58.90;;;;;;4756292;55;21054;-33
2022/10/19 19:12:13;;;;;;;78.75;69.37;;;23.00;58.80;;;;;;4752672;55;21098;-29
2022/10/19 19:17:13;;;;;;;77.55;66.95;;;23.00;58.80;;;;;;4737652;59;21463;-28
2022/10/19 19:22:15;;;;;;;79.60;70.28;;;23.00;58.80;;;;;;4747973;55;20993;-29
2022/10/19 19:27:15;;;;;;;78.50;67.70;;;23.00;58.80;;;;;;4738417;55;21536;-27
2022/10/19 19:32:16;;;;;;;78.03;69.03;;;23.00;58.90;;;;;;4755481;55;21038;-28
2022/10/19 19:37:17;;;;;;;78.55;66.45;;;23.00;58.90;;;;;;4748022;55;21022;-26
2022/10/19 19:42:18;;;;;;;77.22;67.00;;;23.00;58.90;;;;;;4740906;55;21025;-27
2022/10/19 19:47:19;;;;;;;79.22;67.82;;;23.00;58.80;;;;;;4754934;55;21082;-29
2022/10/19 19:52:19;;;;;;;78.80;66.15;;;23.00;58.80;;;;;;4745775;55;21516;-26
2022/10/19 19:57:21;;;;;;;77.78;66.87;;;23.00;59.50;;;;;;4750292;55;21796;-27
2022/10/19 20:02:22;;;;;;;79.65;66.35;;;23.00;58.90;;;;;;4758839;55;22025;-30
2022/10/19 20:07:25;;;;;;;78.95;66.75;;;23.00;58.80;;;;;;4775860;55;21042;-27
2022/10/19 20:12:26;;;;;;;78.28;66.82;;;23.00;58.80;;;;;;4737952;59;21579;-26
2022/10/19 20:17:27;;;;;;;77.22;67.68;;;23.00;58.90;;;;;;4752019;55;21062;-28
2022/10/19 20:22:28;;;;;;;77.97;65.45;;;23.10;58.80;;;;;;4746853;55;21010;-29
2022/10/19 20:27:28;;;;;;;74.12;65.90;;;23.00;58.80;;;;;;4755114;55;21030;-28
2022/10/19 20:32:30;;;;;;;79.95;64.25;;;23.00;58.70;;;;;;4755776;55;21129;-34
2022/10/19 20:37:31;;;;;;;75.82;62.97;;;23.00;58.70;;;;;;4778843;55;21085;-28
2022/10/19 20:42:32;;;;;;;77.20;65.68;;;23.00;58.70;;;;;;4754453;55;21010;-29
2022/10/19 20:47:32;;;;;;;80.03;65.45;;;23.00;58.70;;;;;;4738664;59;21156;-30
2022/10/19 20:52:34;;;;;;;78.62;64.97;;;23.00;58.70;;;;;;4759859;55;21065;-28
2022/10/19 20:57:34;;;;;;;76.70;64.80;;;22.90;58.60;;;;;;4754927;55;21580;-29
2022/10/19 21:02:35;;;;;;;74.32;63.95;;;23.00;58.70;;;;;;4781043;55;21156;-33
2022/10/19 21:07:36;;;;;;;79.57;64.45;;;22.90;58.50;;;;;;4751818;55;21014;-33
2022/10/19 21:12:37;;;;;;;73.90;62.45;;;22.90;58.40;;;;;;4752518;55;21479;-28
2022/10/19 21:17:39;;;;;;;75.22;63.17;;;22.90;58.40;;;;;;4738989;55;21038;-29
2022/10/19 21:22:40;;;;;;;71.60;60.25;;;22.90;58.30;;;;;;4738630;59;20998;-32
2022/10/19 21:27:41;;;;;;;75.37;61.33;;;22.90;58.40;;;;;;4755964;55;22158;-28
2022/10/19 21:32:42;;;;;;;74.15;62.10;;;22.90;58.20;;;;;;4745607;55;21113;-29
2022/10/19 21:37:42;;;;;;;75.57;59.80;;;22.90;58.40;;;;;;4757681;55;21029;-31
2022/10/19 21:42:44;;;;;;;73.85;62.47;;;22.90;58.40;;;;;;4750097;55;21010;-29
2022/10/19 21:47:45;;;;;;;73.87;60.35;;;22.90;58.40;;;;;;4745108;55;21536;-27
2022/10/19 21:52:45;;;;;;;71.50;59.45;;;22.90;58.50;;;;;;4750692;55;21086;-30
2022/10/19 21:57:46;;;;;;;70.57;58.38;;;22.90;58.40;;;;;;4753409;55;21006;-27
2022/10/19 22:02:47;;;;;;;71.37;59.42;;;22.90;58.40;;;;;;4739476;55;21017;-28
2022/10/19 22:07:48;;;;;;;70.22;58.05;;;22.90;58.40;;;;;;4753162;55;21105;-27
2022/10/19 22:12:49;;;;;;;72.00;59.65;;;22.90;58.40;;;;;;4742388;55;21001;-28
2022/10/19 22:17:50;;;;;;;71.00;58.87;;;22.90;58.40;;;;;;4746250;55;21014;-26
2022/10/19 22:22:51;;;;;;;68.20;57.80;;;23.00;58.40;;;;;;4786708;55;21034;-27
2022/10/19 22:27:52;;;;;;;69.75;57.47;;;22.90;58.40;;;;;;4760209;55;20997;-30
2022/10/19 22:32:53;;;;;;;67.03;55.92;;;22.90;58.40;;;;;;4745452;55;21500;-27
2022/10/19 22:37:53;;;;;;;64.65;54.85;;;22.90;58.70;;;;;;4764764;55;21363;-30
2022/10/19 22:43:28;;;;;;;66.70;54.78;;;22.90;58.30;;;;;;4818521;55;20986;-29
2022/10/19 22:48:29;;;;;;;65.40;55.88;;;22.90;58.30;;;;;;4785568;55;21837;-27
2022/10/19 22:53:30;;;;;;;70.45;56.00;;;22.90;58.40;;;;;;4786031;55;21006;-27
2022/10/19 22:58:30;;;;;;;62.15;52.80;;;22.90;58.40;;;;;;4814965;55;21014;-29
2022/10/19 23:03:32;;;;;;;66.40;54.03;;;22.90;58.40;;;;;;4738590;59;20998;-33
2022/10/19 23:08:33;;;;;;;62.28;52.28;;;22.90;58.40;;;;;;4811643;55;21057;-27
2022/10/19 23:13:34;;;;;;;65.15;54.17;;;22.90;58.30;;;;;;4786071;55;21002;-28
2022/10/19 23:18:37;;;;;;;64.00;53.30;;;22.90;58.30;;;;;;4738927;55;21010;-28
2022/10/19 23:23:38;;;;;;;63.75;52.78;;;22.90;58.30;;;;;;4781697;55;21077;-27
2022/10/19 23:28:40;;;;;;;65.90;53.50;;;22.90;58.30;;;;;;4856565;55;21009;-28
2022/10/19 23:33:42;;;;;;;64.28;52.62;;;22.90;58.30;;;;;;4764521;55;21038;-28
2022/10/19 23:38:45;;;;;;;62.08;50.72;;;22.90;58.30;;;;;;4738533;59;21555;-28
2022/10/19 23:43:46;;;;;;;65.12;51.70;;;22.80;58.30;;;;;;4753805;55;21037;-30
2022/10/19 23:48:47;;;;;;;61.53;51.47;;;22.90;58.30;;;;;;4742827;55;21061;-29
2022/10/19 23:53:50;;;;;;;62.75;50.40;;;22.90;58.30;;;;;;4770918;55;21021;-33
2022/10/19 23:58:52;;;;;;;62.20;52.25;;;22.80;58.20;;;;;;4860794;55;21528;-28
